Time;durP1;ratioP1;P1;durP2;ratioP2;P2;SDS_P1;SDS_P2;PMS_P1;PMS_P2;Temp;Humidity;BMP_temperature;BMP_pressure;BME280_temperature;BME280_humidity;BME280_pressure;Samples;Min_cycle;Max_cycle;Signal;HPM_P1;HPM_P2
2021/04/15 00:00:35;;;;;;;3.28;1.83;;;4.40;93.80;;;;;;5000149;28;20096;-36
2021/04/15 00:03:08;;;;;;;3.78;2.40;;;4.40;93.80;;;;;;5000585;28;20353;-35
2021/04/15 00:05:37;;;;;;;2.90;1.45;;;4.40;93.80;;;;;;5001013;28;20432;-37
2021/04/15 00:08:07;;;;;;;2.65;1.08;;;4.50;93.80;;;;;;4999677;28;20038;-33
2021/04/15 00:10:35;;;;;;;3.28;1.60;;;4.50;93.70;;;;;;5002233;28;20315;-39
2021/04/15 00:13:14;;;;;;;3.88;1.38;;;4.60;93.70;;;;;;4998035;28;20509;-32
2021/04/15 00:15:39;;;;;;;3.50;1.65;;;4.60;93.70;;;;;;5001783;28;20239;-38
2021/04/15 00:18:05;;;;;;;4.88;1.63;;;4.60;93.60;;;;;;4997062;28;20108;-39
2021/04/15 00:20:33;;;;;;;1.95;1.33;;;4.60;93.60;;;;;;5004784;28;20028;-38
2021/04/15 00:23:02;;;;;;;2.50;1.73;;;4.60;93.60;;;;;;4994488;28;20028;-39
2021/04/15 00:25:27;;;;;;;3.67;1.83;;;4.60;93.60;;;;;;5004426;28;20029;-37
2021/04/15 00:27:53;;;;;;;5.22;2.05;;;4.60;93.60;;;;;;4994961;28;20076;-37
2021/04/15 00:30:24;;;;;;;2.10;1.08;;;4.60;93.60;;;;;;5005206;28;20037;-37
2021/04/15 00:32:49;;;;;;;1.70;1.10;;;4.60;93.60;;;;;;4994323;28;20037;-38
2021/04/15 00:35:16;;;;;;;4.03;1.10;;;4.60;93.70;;;;;;5006362;28;20030;-39
2021/04/15 00:37:42;;;;;;;4.05;1.20;;;4.60;94.00;;;;;;4992762;28;20128;-39
2021/04/15 00:40:09;;;;;;;2.13;1.10;;;4.60;94.60;;;;;;5005733;28;20112;-39
2021/04/15 00:42:36;;;;;;;1.45;1.10;;;4.60;94.30;;;;;;4975653;28;20026;-38
2021/04/15 00:45:18;;;;;;;2.08;1.27;;;4.60;94.50;;;;;;4986997;28;20100;-37
2021/04/15 00:47:48;;;;;;;2.05;0.98;;;4.60;94.70;;;;;;4993540;28;20080;-39
2021/04/15 00:50:27;;;;;;;4.82;1.42;;;4.50;94.90;;;;;;4985492;28;20037;-39
2021/04/15 00:52:57;;;;;;;2.20;0.82;;;4.50;95.20;;;;;;4997488;28;20026;-35
2021/04/15 00:55:27;;;;;;;3.50;1.25;;;4.50;95.20;;;;;;4985704;28;20054;-38
2021/04/15 00:57:54;;;;;;;1.25;0.90;;;4.50;95.40;;;;;;4995307;28;20068;-39
2021/04/15 01:00:25;;;;;;;3.25;1.08;;;4.40;95.50;;;;;;4987918;28;20026;-39
2021/04/15 01:02:53;;;;;;;1.17;0.65;;;4.40;95.70;;;;;;4993973;28;20030;-38
2021/04/15 01:05:35;;;;;;;2.65;1.00;;;4.30;95.70;;;;;;4989006;28;20042;-38
2021/04/15 01:08:02;;;;;;;1.17;0.70;;;4.30;95.70;;;;;;4994354;28;20084;-37
2021/04/15 01:10:30;;;;;;;1.02;0.68;;;4.30;95.90;;;;;;4989167;28;20064;-38
2021/04/15 01:13:27;;;;;;;0.95;0.70;;;4.30;95.80;;;;;;4991535;28;20033;-36
2021/04/15 01:16:14;;;;;;;1.27;0.65;;;4.30;95.90;;;;;;4987418;28;20137;-38
2021/04/15 01:19:01;;;;;;;1.48;0.57;;;4.30;95.90;;;;;;4995904;28;20029;-38
2021/04/15 01:21:51;;;;;;;2.08;1.50;;;4.30;95.90;;;;;;4985363;28;20042;-34
2021/04/15 01:24:25;;;;;;;1.00;0.70;;;4.30;96.00;;;;;;4997419;28;20682;-37
2021/04/15 01:27:09;;;;;;;0.73;0.70;;;4.30;96.00;;;;;;4985208;28;20057;-39
2021/04/15 01:30:00;;;;;;;1.33;0.60;;;4.20;96.00;;;;;;4992137;28;20112;-38
2021/04/15 01:33:02;;;;;;;2.00;0.70;;;4.20;95.90;;;;;;5003738;28;20037;-38
2021/04/15 01:35:36;;;;;;;1.10;0.77;;;4.20;96.40;;;;;;4994197;28;20394;-39
2021/04/15 01:38:05;;;;;;;1.75;0.70;;;4.10;96.10;;;;;;5003497;28;20034;-40
2021/04/15 01:40:33;;;;;;;1.75;0.80;;;4.10;96.20;;;;;;4990718;28;20137;-37
2021/04/15 01:43:15;;;;;;;1.33;0.70;;;4.10;96.30;;;;;;4988132;28;20022;-39
2021/04/15 01:45:44;;;;;;;2.45;1.00;;;4.00;96.70;;;;;;4987852;28;20030;-36
2021/04/15 01:48:17;;;;;;;0.85;0.85;;;4.00;96.60;;;;;;4986076;28;20036;-37
2021/04/15 01:50:59;;;;;;;1.40;1.00;;;4.00;96.50;;;;;;4995670;28;20117;-39
2021/04/15 01:53:48;;;;;;;1.65;0.90;;;4.00;96.60;;;;;;4986204;28;20023;-36
2021/04/15 01:56:17;;;;;;;1.20;0.90;;;4.00;96.70;;;;;;4995099;28;20123;-39
2021/04/15 01:59:02;;;;;;;1.52;0.93;;;4.00;96.80;;;;;;5003525;28;20058;-35
2021/04/15 02:01:33;;;;;;;1.13;1.05;;;4.00;96.80;;;;;;4994889;28;20117;-38
2021/04/15 02:04:05;;;;;;;0.82;0.75;;;4.00;96.80;;;;;;5005510;28;20041;-36
2021/04/15 02:06:33;;;;;;;1.77;0.98;;;4.00;96.80;;;;;;4998607;28;20390;-37
2021/04/15 02:09:10;;;;;;;0.60;0.50;;;4.00;96.70;;;;;;5006445;28;20026;-39
2021/04/15 02:11:54;;;;;;;2.35;0.90;;;4.00;96.70;;;;;;4997671;28;20208;-37
2021/04/15 02:14:23;;;;;;;2.45;0.77;;;4.10;96.80;;;;;;5007582;28;20030;-37
2021/04/15 02:16:53;;;;;;;1.15;0.60;;;4.10;96.70;;;;;;4997436;28;20372;-37
2021/04/15 02:19:33;;;;;;;0.82;0.82;;;4.10;96.60;;;;;;5007329;28;20514;-39
2021/04/15 02:22:09;;;;;;;1.50;0.68;;;4.20;96.60;;;;;;4997222;28;20026;-39
2021/04/15 02:24:48;;;;;;;0.98;0.73;;;4.20;96.60;;;;;;5006884;28;20026;-37
2021/04/15 02:27:21;;;;;;;1.17;0.60;;;4.20;96.60;;;;;;4998084;28;20025;-38
2021/04/15 02:29:57;;;;;;;1.15;0.80;;;4.30;96.60;;;;;;5006233;28;20025;-36
2021/04/15 02:32:32;;;;;;;1.95;0.88;;;4.30;96.60;;;;;;4998293;28;20091;-38
2021/04/15 02:35:31;;;;;;;1.00;0.70;;;4.30;96.60;;;;;;5006302;28;20030;-37
2021/04/15 02:38:00;;;;;;;1.17;0.63;;;4.30;96.80;;;;;;4990881;28;20042;-38
2021/04/15 02:40:38;;;;;;;1.23;0.60;;;4.40;96.50;;;;;;5005015;28;20041;-38
2021/04/15 02:43:10;;;;;;;0.82;0.75;;;4.40;96.50;;;;;;4999943;28;20037;-35
2021/04/15 02:45:43;;;;;;;1.00;0.70;;;4.40;96.50;;;;;;5001902;28;20319;-36
2021/04/15 02:48:18;;;;;;;1.65;0.60;;;4.30;96.40;;;;;;5002344;28;20038;-36
2021/04/15 02:50:44;;;;;;;0.65;0.57;;;4.30;96.40;;;;;;5005053;28;20496;-38
2021/04/15 02:53:15;;;;;;;0.95;0.60;;;4.30;96.50;;;;;;4997748;28;20026;-36
2021/04/15 02:55:50;;;;;;;1.58;0.65;;;4.30;96.50;;;;;;5005923;28;20054;-35
2021/04/15 02:58:30;;;;;;;0.52;0.52;;;4.30;96.50;;;;;;4997085;28;20072;-39
2021/04/15 03:01:00;;;;;;;0.88;0.50;;;4.30;96.50;;;;;;5006448;28;20111;-37
2021/04/15 03:03:32;;;;;;;1.55;1.00;;;4.20;96.50;;;;;;4997404;28;20025;-33
2021/04/15 03:06:03;;;;;;;0.98;0.70;;;4.20;96.50;;;;;;5005679;28;20018;-38
2021/04/15 03:08:32;;;;;;;3.33;0.88;;;4.20;96.60;;;;;;4996322;28;20021;-40
2021/04/15 03:11:22;;;;;;;0.75;0.70;;;4.30;96.60;;;;;;5006180;28;20025;-38
2021/04/15 03:14:03;;;;;;;1.77;1.00;;;4.30;96.70;;;;;;4996321;28;20025;-38
2021/04/15 03:16:34;;;;;;;2.88;1.23;;;4.20;97.30;;;;;;5005419;28;20048;-38
2021/04/15 03:19:04;;;;;;;3.38;1.00;;;4.10;97.30;;;;;;4996977;28;20049;-36
2021/04/15 03:22:17;;;;;;;1.33;1.02;;;4.00;97.50;;;;;;5005514;28;20030;-38
2021/04/15 03:24:46;;;;;;;2.85;1.20;;;3.90;97.90;;;;;;4921121;29;20047;-39
2021/04/15 03:27:23;;;;;;;4.13;1.00;;;3.70;98.40;;;;;;4921450;29;20040;-38
2021/04/15 03:30:16;;;;;;;1.48;1.10;;;3.70;98.40;;;;;;4958824;28;20034;-37
2021/04/15 03:32:53;;;;;;;1.58;1.13;;;3.60;98.70;;;;;;4990491;28;20030;-38
2021/04/15 03:35:35;;;;;;;2.30;1.70;;;3.50;98.70;;;;;;5003657;28;20690;-38
2021/04/15 03:38:12;;;;;;;3.33;1.30;;;3.40;98.80;;;;;;4998336;28;20025;-35
2021/04/15 03:40:44;;;;;;;1.23;0.98;;;3.30;98.80;;;;;;5004069;28;20283;-38
2021/04/15 03:43:18;;;;;;;1.42;1.02;;;3.30;98.80;;;;;;4998493;28;20042;-37
2021/04/15 03:45:50;;;;;;;3.63;1.23;;;3.20;99.00;;;;;;4998824;28;20018;-36
2021/04/15 03:48:23;;;;;;;4.57;1.45;;;3.20;99.10;;;;;;4994106;28;20049;-39
2021/04/15 03:51:03;;;;;;;1.50;1.02;;;3.20;99.00;;;;;;4990760;28;20065;-36
2021/04/15 03:53:42;;;;;;;2.03;1.15;;;3.10;98.90;;;;;;4994154;28;20022;-39
2021/04/15 03:56:16;;;;;;;2.95;1.13;;;3.10;99.20;;;;;;4988873;28;20056;-36
2021/04/15 03:58:47;;;;;;;4.13;1.38;;;3.10;99.00;;;;;;4994764;28;20381;-37
2021/04/15 04:01:23;;;;;;;3.42;1.63;;;3.10;99.20;;;;;;4989964;28;20030;-38
2021/04/15 04:04:35;;;;;;;2.78;1.80;;;3.10;99.40;;;;;;4994265;28;20018;-37
2021/04/15 04:07:06;;;;;;;3.55;2.15;;;3.20;99.40;;;;;;4986660;28;20079;-38
2021/04/15 04:09:41;;;;;;;2.83;1.83;;;3.20;99.20;;;;;;4998986;28;20032;-38
2021/04/15 04:12:20;;;;;;;2.83;1.75;;;3.20;99.00;;;;;;4986693;28;20112;-37
2021/04/15 04:14:55;;;;;;;3.13;1.67;;;3.20;98.80;;;;;;4998022;28;20034;-37
2021/04/15 04:17:29;;;;;;;3.20;1.58;;;3.20;98.70;;;;;;4986547;28;20427;-38
2021/04/15 04:19:56;;;;;;;1.67;1.40;;;3.20;98.60;;;;;;4998523;28;20033;-36
2021/04/15 04:22:27;;;;;;;1.77;1.42;;;3.20;98.60;;;;;;4986089;28;20513;-38
2021/04/15 04:24:58;;;;;;;2.08;1.40;;;3.20;98.60;;;;;;4997537;28;20112;-36
2021/04/15 04:27:34;;;;;;;1.55;1.45;;;3.10;98.60;;;;;;4986271;28;20057;-35
2021/04/15 04:30:06;;;;;;;2.30;1.35;;;3.10;98.60;;;;;;4996215;28;20030;-35
2021/04/15 04:32:32;;;;;;;1.95;1.27;;;3.10;98.60;;;;;;4987145;28;20069;-38
2021/04/15 04:35:00;;;;;;;1.67;1.25;;;3.00;98.50;;;;;;4995262;28;20021;-38
2021/04/15 04:37:48;;;;;;;1.02;0.98;;;3.00;98.50;;;;;;4988782;28;20358;-37
2021/04/15 04:40:22;;;;;;;1.60;1.33;;;3.00;98.60;;;;;;4995712;28;20511;-37
2021/04/15 04:43:09;;;;;;;3.63;2.00;;;2.90;98.50;;;;;;4987243;28;20069;-38
2021/04/15 04:45:36;;;;;;;1.85;1.50;;;2.90;98.60;;;;;;4994489;28;20042;-37
2021/04/15 04:48:12;;;;;;;2.53;2.00;;;2.90;98.60;;;;;;4985688;28;20521;-38
2021/04/15 04:51:09;;;;;;;3.03;1.67;;;2.90;98.60;;;;;;4995288;28;20040;-37
2021/04/15 04:53:37;;;;;;;2.55;2.00;;;2.80;98.50;;;;;;4978669;28;20110;-38
2021/04/15 04:56:24;;;;;;;2.78;1.52;;;2.90;98.50;;;;;;4997120;28;20412;-39
2021/04/15 04:58:50;;;;;;;2.70;1.92;;;2.80;98.50;;;;;;4985910;28;20038;-40
2021/04/15 05:01:16;;;;;;;2.90;2.17;;;2.80;98.50;;;;;;4998313;28;20469;-35
2021/04/15 05:03:42;;;;;;;3.35;2.67;;;2.70;98.50;;;;;;4985956;28;20037;-38
2021/04/15 05:06:10;;;;;;;4.50;2.33;;;2.80;98.60;;;;;;4995591;28;20247;-39
2021/04/15 05:08:54;;;;;;;4.10;2.53;;;2.80;98.60;;;;;;4987657;28;20037;-36
2021/04/15 05:11:23;;;;;;;3.20;2.60;;;2.80;98.60;;;;;;4995688;28;20136;-43
2021/04/15 05:13:53;;;;;;;4.80;2.83;;;2.80;98.60;;;;;;4986186;28;20019;-41
2021/04/15 05:16:18;;;;;;;4.07;2.92;;;2.80;98.50;;;;;;4991513;28;20038;-36
2021/04/15 05:18:44;;;;;;;3.97;3.03;;;2.80;98.60;;;;;;4986851;28;20022;-38
2021/04/15 05:21:16;;;;;;;3.45;2.75;;;2.80;98.50;;;;;;4988648;28;20030;-39
2021/04/15 05:23:56;;;;;;;2.90;2.60;;;2.90;98.60;;;;;;4999067;28;20120;-37
2021/04/15 05:26:34;;;;;;;3.90;2.60;;;2.90;98.60;;;;;;4998369;28;20029;-38
2021/04/15 05:29:01;;;;;;;2.90;2.35;;;2.90;98.60;;;;;;5000489;28;20032;-39
2021/04/15 05:31:30;;;;;;;3.50;2.85;;;3.00;98.50;;;;;;5001347;28;20041;-38
2021/04/15 05:34:15;;;;;;;5.65;3.35;;;3.00;98.50;;;;;;4991679;28;20145;-35
2021/04/15 05:36:41;;;;;;;4.57;3.22;;;3.10;98.50;;;;;;4990839;28;20125;-38
2021/04/15 05:39:12;;;;;;;3.60;3.13;;;3.10;98.40;;;;;;4991168;28;20542;-38
2021/04/15 05:42:02;;;;;;;4.88;2.80;;;3.20;98.40;;;;;;4989873;28;20058;-37
2021/04/15 05:44:44;;;;;;;4.03;3.17;;;3.30;98.40;;;;;;4989945;28;20038;-39
2021/04/15 05:47:14;;;;;;;4.80;3.37;;;3.40;98.30;;;;;;4992250;28;20470;-38
2021/04/15 05:49:47;;;;;;;3.90;3.22;;;3.50;98.30;;;;;;4998062;28;20025;-34
2021/04/15 05:52:34;;;;;;;7.57;4.18;;;3.60;98.20;;;;;;4997792;28;20041;-35
2021/04/15 05:55:06;;;;;;;11.65;5.30;;;3.70;98.10;;;;;;4999703;28;20081;-36
2021/04/15 05:57:38;;;;;;;9.55;5.25;;;3.90;98.10;;;;;;4997671;28;20042;-38
2021/04/15 06:00:17;;;;;;;8.20;5.82;;;3.90;98.00;;;;;;4999205;28;20535;-38
2021/04/15 06:02:51;;;;;;;7.38;5.05;;;4.00;98.00;;;;;;5002398;28;20030;-38
2021/04/15 06:05:32;;;;;;;8.98;5.10;;;4.00;98.10;;;;;;4988614;28;20055;-39
2021/04/15 06:08:02;;;;;;;8.65;4.13;;;4.00;98.10;;;;;;4991636;28;20037;-37
2021/04/15 06:10:31;;;;;;;9.18;4.55;;;4.00;98.10;;;;;;4987896;28;20038;-38
2021/04/15 06:13:15;;;;;;;10.40;4.72;;;4.10;98.20;;;;;;4990698;28;20030;-39
2021/04/15 06:16:04;;;;;;;9.48;4.32;;;4.20;98.20;;;;;;4988278;28;20078;-37
2021/04/15 06:18:53;;;;;;;11.95;4.65;;;4.30;98.30;;;;;;4994808;28;20476;-39
2021/04/15 06:21:26;;;;;;;7.30;4.03;;;4.30;98.30;;;;;;4985375;28;20027;-39
2021/04/15 06:24:07;;;;;;;7.32;3.80;;;4.40;98.30;;;;;;4995089;28;20026;-37
2021/04/15 06:26:49;;;;;;;9.10;3.70;;;4.50;98.30;;;;;;4985421;28;20046;-38
2021/04/15 06:29:27;;;;;;;3.80;3.13;;;4.60;98.20;;;;;;4997111;28;20107;-35
2021/04/15 06:31:56;;;;;;;7.55;4.07;;;4.60;98.10;;;;;;4984944;28;20045;-39
2021/04/15 06:34:23;;;;;;;4.40;3.63;;;4.70;98.00;;;;;;4997497;28;20410;-37
2021/04/15 06:37:02;;;;;;;7.30;4.00;;;4.80;98.00;;;;;;4984385;28;20049;-38
2021/04/15 06:39:30;;;;;;;9.55;4.88;;;4.90;97.90;;;;;;4996446;28;20682;-35
2021/04/15 06:42:18;;;;;;;10.45;4.68;;;4.90;97.80;;;;;;4984366;28;20034;-35
2021/04/15 06:45:11;;;;;;;8.48;4.38;;;4.90;97.80;;;;;;4996937;28;20445;-38
2021/04/15 06:47:50;;;;;;;;;;;4.90;97.70;;;;;;5003005;28;20022;-36
2021/04/15 06:50:22;;;;;;;5.90;3.80;;;4.70;97.70;;;;;;4994355;28;19909;-38
2021/04/15 06:53:04;;;;;;;7.47;4.45;;;4.60;97.80;;;;;;5007806;28;20116;-37
2021/04/15 06:55:44;;;;;;;10.93;4.25;;;4.60;98.00;;;;;;4995142;28;20060;-36
2021/04/15 06:58:35;;;;;;;7.13;3.70;;;4.50;98.20;;;;;;5007891;28;20057;-37
2021/04/15 07:01:24;;;;;;;7.40;4.15;;;4.50;98.30;;;;;;4997197;28;20034;-36
2021/04/15 07:04:13;;;;;;;7.38;4.00;;;4.50;98.30;;;;;;5005817;28;20031;-36
2021/04/15 07:07:01;;;;;;;11.65;5.03;;;4.50;98.30;;;;;;4998336;28;20369;-37
2021/04/15 07:09:38;;;;;;;10.18;4.10;;;4.50;98.30;;;;;;5004478;28;20113;-38
2021/04/15 07:12:15;;;;;;;4.72;3.78;;;4.50;98.40;;;;;;4999720;28;20477;-37
2021/04/15 07:15:11;;;;;;;6.53;3.97;;;4.50;98.50;;;;;;5004067;28;20458;-39
2021/04/15 07:17:49;;;;;;;8.40;4.57;;;4.60;98.50;;;;;;5002773;28;20085;-35
2021/04/15 07:20:35;;;;;;;5.93;4.40;;;4.70;98.50;;;;;;5001217;28;20379;-37
2021/04/15 07:23:26;;;;;;;9.63;4.72;;;4.90;98.40;;;;;;5005285;28;20029;-38
2021/04/15 07:26:10;;;;;;;5.22;4.13;;;4.90;98.30;;;;;;4997697;28;20018;-40
2021/04/15 07:29:03;;;;;;;5.55;3.65;;;5.00;98.20;;;;;;4988696;28;20034;-37
2021/04/15 07:31:55;;;;;;;6.25;4.25;;;5.00;98.10;;;;;;4999946;28;20025;-36
2021/04/15 07:34:39;;;;;;;7.10;3.47;;;5.10;98.10;;;;;;4988985;28;20053;-35
2021/04/15 07:37:26;;;;;;;6.78;3.40;;;5.10;97.90;;;;;;4993394;28;20038;-40
2021/04/15 07:40:30;;;;;;;5.88;3.65;;;5.20;97.90;;;;;;5006069;28;20469;-37
2021/04/15 07:43:14;;;;;;;5.13;3.53;;;5.20;97.80;;;;;;4998978;28;20415;-39
2021/04/15 07:46:00;;;;;;;5.30;3.17;;;5.30;97.80;;;;;;5004626;28;20038;-38
2021/04/15 07:48:59;;;;;;;7.70;3.40;;;5.40;97.70;;;;;;5007806;28;20076;-37
2021/04/15 07:51:47;;;;;;;4.82;3.38;;;5.50;97.70;;;;;;5000538;28;20566;-37
2021/04/15 07:54:37;;;;;;;7.20;3.90;;;5.60;97.60;;;;;;4989448;28;20125;-38
2021/04/15 07:57:08;;;;;;;5.50;3.20;;;5.70;97.40;;;;;;4998980;28;20058;-38
2021/04/15 07:59:39;;;;;;;4.07;2.60;;;5.80;97.20;;;;;;4986962;28;20089;-36
2021/04/15 08:02:28;;;;;;;4.43;2.60;;;5.90;97.20;;;;;;4997998;28;20026;-38
2021/04/15 08:05:05;;;;;;;3.83;2.47;;;6.20;97.10;;;;;;4987599;28;20045;-37
2021/04/15 08:07:41;;;;;;;4.97;2.33;;;6.30;96.10;;;;;;4999080;28;20042;-36
2021/04/15 08:10:32;;;;;;;6.10;2.33;;;6.50;95.90;;;;;;4987979;28;20026;-38
2021/04/15 08:13:22;;;;;;;4.72;2.08;;;6.60;95.20;;;;;;4998301;28;20034;-38
2021/04/15 08:16:20;;;;;;;3.97;1.80;;;6.80;94.90;;;;;;4987670;28;20046;-36
2021/04/15 08:19:26;;;;;;;3.35;2.45;;;6.90;94.70;;;;;;4998317;28;20508;-39
2021/04/15 08:21:57;;;;;;;3.17;2.17;;;7.20;94.40;;;;;;4990551;28;20035;-38
2021/04/15 08:24:33;;;;;;;3.35;2.22;;;7.30;94.10;;;;;;4996386;28;20045;-39
2021/04/15 08:27:36;;;;;;;3.90;2.30;;;7.40;93.90;;;;;;4989755;28;20141;-37
2021/04/15 08:30:25;;;;;;;5.80;2.20;;;7.50;93.20;;;;;;4991447;28;20080;-37
2021/04/15 08:33:38;;;;;;;3.55;2.38;;;7.60;92.60;;;;;;4995190;28;20473;-38
2021/04/15 08:36:06;;;;;;;4.63;2.20;;;7.60;92.40;;;;;;4887923;29;20059;-38
2021/04/15 08:38:58;;;;;;;5.72;2.00;;;7.60;92.20;;;;;;4904268;29;20449;-40
2021/04/15 08:41:50;;;;;;;4.53;1.92;;;7.60;92.20;;;;;;4959358;28;20363;-39
2021/04/15 08:44:28;;;;;;;3.92;2.05;;;7.70;91.70;;;;;;4995338;28;20021;-39
2021/04/15 08:47:18;;;;;;;2.22;1.63;;;7.70;91.50;;;;;;4996914;28;20109;-40
2021/04/15 08:50:08;;;;;;;3.20;1.75;;;7.70;91.60;;;;;;4997862;28;20638;-38
2021/04/15 08:52:41;;;;;;;5.13;2.67;;;7.60;91.30;;;;;;4988251;28;20753;-38
2021/04/15 08:55:51;;;;;;;3.38;2.10;;;7.60;91.40;;;;;;4995279;28;20029;-38
2021/04/15 08:58:23;;;;;;;6.60;2.33;;;7.50;91.50;;;;;;4957085;28;20049;-39
2021/04/15 09:01:01;;;;;;;4.20;2.35;;;7.50;91.70;;;;;;4999603;28;20065;-36
2021/04/15 09:03:49;;;;;;;2.63;1.80;;;7.50;91.60;;;;;;4999956;28;20089;-39
2021/04/15 09:06:44;;;;;;;3.05;1.58;;;7.60;91.60;;;;;;4995821;28;20033;-38
2021/04/15 09:09:30;;;;;;;3.03;1.50;;;7.60;91.70;;;;;;5001581;28;20048;-36
2021/04/15 09:12:09;;;;;;;1.67;1.52;;;7.70;91.50;;;;;;4985222;28;20136;-39
2021/04/15 09:14:52;;;;;;;2.20;1.15;;;7.80;91.30;;;;;;4997483;28;20097;-38
2021/04/15 09:17:47;;;;;;;1.15;0.90;;;7.80;90.80;;;;;;4986494;28;20030;-39
2021/04/15 09:20:13;;;;;;;3.25;1.10;;;7.80;90.20;;;;;;4996846;28;20040;-35
2021/04/15 09:22:59;;;;;;;1.65;1.25;;;7.90;89.30;;;;;;4985443;28;20394;-38
2021/04/15 09:25:43;;;;;;;1.90;1.20;;;7.90;89.50;;;;;;4996964;28;20038;-39
2021/04/15 09:28:27;;;;;;;2.97;1.40;;;7.90;89.50;;;;;;4985754;28;20073;-35
2021/04/15 09:31:19;;;;;;;1.95;1.00;;;8.00;89.60;;;;;;4990948;28;20033;-35
2021/04/15 09:33:59;;;;;;;2.53;1.40;;;8.00;90.00;;;;;;5003914;28;20126;-40
2021/04/15 09:36:58;;;;;;;1.58;1.17;;;8.10;90.00;;;;;;4994327;28;20164;-38
2021/04/15 09:39:48;;;;;;;2.42;1.65;;;8.20;89.90;;;;;;5002400;28;20029;-40
2021/04/15 09:42:16;;;;;;;1.38;1.27;;;8.20;88.80;;;;;;4999922;28;20111;-39
2021/04/15 09:45:10;;;;;;;2.20;1.35;;;8.30;88.70;;;;;;5001571;28;20484;-38
2021/04/15 09:47:54;;;;;;;2.65;1.77;;;8.40;88.80;;;;;;5001114;28;20497;-38
2021/04/15 09:50:51;;;;;;;3.67;1.90;;;8.50;88.50;;;;;;4998484;28;20026;-38
2021/04/15 09:53:48;;;;;;;4.10;1.88;;;8.50;88.00;;;;;;4917001;28;20516;-39
2021/04/15 09:56:41;;;;;;;2.30;1.50;;;8.50;88.10;;;;;;4993025;28;20050;-38
2021/04/15 09:59:23;;;;;;;4.38;2.15;;;8.40;87.40;;;;;;4985710;28;20363;-37
2021/04/15 10:02:05;;;;;;;2.58;1.67;;;8.30;87.80;;;;;;4994377;28;20557;-38
2021/04/15 10:04:34;;;;;;;2.00;1.80;;;8.30;88.70;;;;;;5005176;28;20022;-38
2021/04/15 10:07:08;;;;;;;3.20;1.83;;;8.30;88.10;;;;;;4993277;28;20045;-36
2021/04/15 10:10:16;;;;;;;3.15;2.15;;;8.30;87.70;;;;;;5006368;28;20029;-38
2021/04/15 10:12:56;;;;;;;3.70;1.73;;;8.30;87.80;;;;;;4994840;28;20061;-38
2021/04/15 10:15:49;;;;;;;2.30;1.60;;;8.40;87.90;;;;;;5004131;28;20568;-37
2021/04/15 10:18:33;;;;;;;2.63;1.77;;;8.60;88.00;;;;;;4997920;28;20056;-36
2021/04/15 10:21:25;;;;;;;3.17;1.83;;;8.80;87.80;;;;;;5000710;28;20040;-35
2021/04/15 10:23:59;;;;;;;3.35;2.17;;;9.00;87.10;;;;;;5001664;28;20073;-37
2021/04/15 10:26:28;;;;;;;2.67;2.25;;;9.20;86.20;;;;;;5002864;28;20033;-37
2021/04/15 10:29:09;;;;;;;3.28;2.30;;;9.20;85.70;;;;;;5003747;28;20120;-36
2021/04/15 10:31:55;;;;;;;2.25;1.90;;;9.20;85.20;;;;;;5002827;28;20034;-38
2021/04/15 10:34:44;;;;;;;2.17;1.98;;;9.20;85.70;;;;;;5005736;28;20356;-40
2021/04/15 10:37:37;;;;;;;3.72;2.00;;;9.10;85.60;;;;;;4999018;28;20184;-39
2021/04/15 10:40:24;;;;;;;2.17;1.70;;;9.10;85.40;;;;;;4989740;28;20406;-38
2021/04/15 10:43:11;;;;;;;1.50;1.40;;;9.10;86.00;;;;;;5001588;28;20042;-38
2021/04/15 10:45:59;;;;;;;2.08;1.45;;;9.20;86.40;;;;;;4988605;28;20037;-38
2021/04/15 10:48:50;;;;;;;2.90;1.70;;;9.40;86.30;;;;;;5003478;28;20022;-38
2021/04/15 10:51:33;;;;;;;2.25;1.60;;;9.50;85.70;;;;;;4990743;28;20458;-39
2021/04/15 10:54:19;;;;;;;2.72;1.60;;;9.50;84.90;;;;;;5000337;28;20042;-38
2021/04/15 10:56:50;;;;;;;2.17;2.00;;;9.50;85.20;;;;;;4989952;28;20154;-37
2021/04/15 10:59:33;;;;;;;2.88;1.90;;;9.50;85.40;;;;;;4997282;28;20453;-36
2021/04/15 11:02:20;;;;;;;2.67;1.75;;;9.50;85.40;;;;;;5007504;28;20030;-40
2021/04/15 11:04:46;;;;;;;2.35;1.60;;;9.60;85.50;;;;;;5000887;28;20034;-38
2021/04/15 11:07:26;;;;;;;2.58;2.10;;;9.70;85.40;;;;;;5007389;28;20022;-39
2021/04/15 11:09:56;;;;;;;1.70;1.60;;;9.80;85.50;;;;;;4999793;28;20192;-39
2021/04/15 11:12:29;;;;;;;2.33;1.70;;;10.00;85.50;;;;;;5007655;28;20014;-39
2021/04/15 11:15:07;;;;;;;1.80;1.70;;;10.10;84.90;;;;;;4998962;28;20484;-39
2021/04/15 11:17:41;;;;;;;2.45;1.77;;;10.40;84.80;;;;;;5005520;28;20073;-35
2021/04/15 11:20:19;;;;;;;1.83;1.58;;;10.60;84.70;;;;;;4999041;28;20488;-36
2021/04/15 11:22:58;;;;;;;3.58;1.52;;;10.90;83.90;;;;;;5006982;28;20610;-38
2021/04/15 11:25:27;;;;;;;2.65;1.60;;;11.00;82.80;;;;;;4999501;28;20030;-38
2021/04/15 11:27:53;;;;;;;2.50;1.45;;;11.10;81.80;;;;;;5003907;28;20030;-36
2021/04/15 11:30:57;;;;;;;2.28;1.90;;;11.00;81.70;;;;;;4996795;28;20038;-36
2021/04/15 11:33:33;;;;;;;4.03;1.52;;;10.90;80.60;;;;;;4978910;28;20049;-38
2021/04/15 11:36:23;;;;;;;1.55;1.45;;;10.70;81.10;;;;;;4988232;28;20022;-38
2021/04/15 11:39:05;;;;;;;2.95;1.92;;;10.60;81.40;;;;;;4992045;28;20638;-38
2021/04/15 11:41:46;;;;;;;3.25;2.00;;;10.40;80.80;;;;;;4988270;28;20030;-39
2021/04/15 11:44:23;;;;;;;2.53;2.10;;;10.30;78.90;;;;;;4993545;28;20037;-38
2021/04/15 11:46:51;;;;;;;3.17;2.10;;;10.20;78.20;;;;;;4988287;28;20014;-38
2021/04/15 11:49:20;;;;;;;2.90;2.10;;;10.10;78.60;;;;;;4994435;28;20022;-39
2021/04/15 11:52:23;;;;;;;3.65;2.05;;;10.10;78.40;;;;;;4992630;28;20073;-39
2021/04/15 11:54:49;;;;;;;;;;;10.20;75.50;;;;;;4992577;28;20034;-36
2021/04/15 11:57:37;;;;;;;2.45;1.70;;;10.10;77.40;;;;;;4987978;28;19932;-39
2021/04/15 12:00:02;;;;;;;2.55;1.70;;;10.20;77.60;;;;;;4991854;28;20037;-36
2021/04/15 12:02:37;;;;;;;2.60;2.05;;;10.30;77.00;;;;;;4988407;28;20027;-37
2021/04/15 12:05:22;;;;;;;2.65;1.95;;;10.30;75.00;;;;;;4991841;28;20478;-41
2021/04/15 12:08:00;;;;;;;3.05;2.10;;;10.30;74.40;;;;;;4987551;28;20064;-37
2021/04/15 12:10:30;;;;;;;2.30;1.65;;;10.30;75.20;;;;;;4992221;28;20113;-37
2021/04/15 12:13:02;;;;;;;2.53;1.58;;;10.50;75.70;;;;;;4987774;28;20030;-38
2021/04/15 12:15:38;;;;;;;2.95;1.90;;;10.50;74.10;;;;;;4988487;28;20023;-38
2021/04/15 12:18:17;;;;;;;2.20;1.70;;;10.50;73.00;;;;;;4987555;28;20141;-39
2021/04/15 12:21:20;;;;;;;3.83;2.22;;;10.60;72.70;;;;;;4996642;28;20025;-34
2021/04/15 12:24:08;;;;;;;2.60;2.00;;;10.50;70.90;;;;;;4988484;28;20026;-38
2021/04/15 12:26:47;;;;;;;4.03;2.03;;;10.60;70.90;;;;;;4991570;28;20409;-40
2021/04/15 12:29:22;;;;;;;1.92;1.65;;;10.60;70.10;;;;;;4988666;28;20026;-38
2021/04/15 12:32:15;;;;;;;4.70;2.40;;;10.70;69.80;;;;;;4991556;28;20560;-38
2021/04/15 12:34:46;;;;;;;3.45;1.90;;;10.70;68.50;;;;;;4987514;28;20030;-39
2021/04/15 12:37:16;;;;;;;1.80;1.70;;;10.70;68.20;;;;;;4987877;28;20118;-40
2021/04/15 12:40:00;;;;;;;2.53;1.90;;;10.80;68.70;;;;;;4994572;28;20114;-38
2021/04/15 12:42:26;;;;;;;2.00;1.80;;;10.80;68.30;;;;;;5001281;28;20033;-38
2021/04/15 12:44:58;;;;;;;2.28;2.08;;;10.80;67.80;;;;;;4986956;28;20026;-39
2021/04/15 12:47:25;;;;;;;2.03;1.63;;;10.90;66.80;;;;;;4990065;28;20070;-39
2021/04/15 12:49:51;;;;;;;6.85;2.40;;;10.90;66.60;;;;;;4986785;28;20121;-38
2021/04/15 12:52:18;;;;;;;2.42;1.80;;;10.90;66.20;;;;;;4999637;28;20289;-42
2021/04/15 12:54:44;;;;;;;2.45;1.75;;;11.00;65.30;;;;;;4987020;28;20022;-39
2021/04/15 12:57:14;;;;;;;3.17;2.20;;;11.00;64.60;;;;;;4992048;28;20125;-38
2021/04/15 12:59:47;;;;;;;2.67;2.13;;;11.10;63.50;;;;;;4987014;28;20386;-37
2021/04/15 13:02:24;;;;;;;2.70;2.35;;;11.10;64.10;;;;;;4990542;28;20111;-38
2021/04/15 13:04:56;;;;;;;3.80;2.10;;;11.00;63.80;;;;;;4987730;28;20034;-37
2021/04/15 13:07:21;;;;;;;3.25;2.30;;;11.00;63.60;;;;;;4991127;28;20022;-39
2021/04/15 13:09:50;;;;;;;3.05;1.90;;;10.80;63.40;;;;;;4986232;28;20657;-38
2021/04/15 13:12:18;;;;;;;2.13;1.92;;;10.80;63.10;;;;;;4990833;28;20080;-36
2021/04/15 13:14:45;;;;;;;3.35;1.90;;;10.70;64.00;;;;;;4986625;28;20652;-37
2021/04/15 13:17:13;;;;;;;3.03;1.70;;;10.70;64.60;;;;;;4994625;28;20038;-37
2021/04/15 13:20:00;;;;;;;3.45;2.00;;;10.70;65.10;;;;;;4999183;28;20045;-37
2021/04/15 13:22:36;;;;;;;3.10;2.10;;;10.70;64.10;;;;;;4997974;28;20030;-34
2021/04/15 13:25:02;;;;;;;3.95;1.95;;;10.70;62.80;;;;;;5003119;28;20029;-37
2021/04/15 13:28:07;;;;;;;2.17;1.73;;;10.70;62.80;;;;;;5003809;28;20609;-36
2021/04/15 13:30:42;;;;;;;3.33;2.03;;;10.80;62.80;;;;;;4932164;29;20090;-38
2021/04/15 13:33:22;;;;;;;1.95;1.80;;;10.80;62.30;;;;;;4920588;29;20036;-36
2021/04/15 13:35:47;;;;;;;2.00;1.80;;;10.90;62.30;;;;;;4976433;28;20439;-39
2021/04/15 13:41:21;;;;;;;4.28;2.67;;;10.90;61.50;;;;;;4986555;28;20042;-37
2021/04/15 13:44:02;;;;;;;2.80;1.92;;;10.80;60.80;;;;;;4979339;28;20084;-40
2021/04/15 13:46:32;;;;;;;3.75;1.88;;;10.80;61.70;;;;;;4987622;28;20101;-38
2021/04/15 13:49:11;;;;;;;2.65;2.00;;;10.80;62.50;;;;;;4994438;28;20058;-37
2021/04/15 13:51:49;;;;;;;2.38;1.63;;;10.90;61.80;;;;;;4996856;28;20339;-37
2021/04/15 13:54:20;;;;;;;3.15;2.03;;;10.90;62.00;;;;;;5000182;28;20034;-39
2021/04/15 13:56:59;;;;;;;3.05;1.75;;;11.00;61.80;;;;;;4986088;28;20089;-38